Aeroporto :
LOGIN :

Iscrizione | Disclaimer

   EN    FR    IT 

 










Sommario :    VFR   VFR Marginale   IFR   IFR Intensivo   IFR Molto Intensivo
Visibilità : 
Base nubi : 
>= 8 km
>= 3000ft
5 / 8 km
1000 / 3000 ft
1500m / 5 km
500 / 1000 ft
800 / 1500m
200 / 500 ft
< 800m
< 200 ft
Simboli :   Temporali  Nebbia  Neve Forte  Precipitazioni Forti  Vento > 20 kt
SIGMETs :   Varie  Temporali  Ghiacco  Turbolenza  Onda orograficha  Ceneri Vulcaniche






- Altitudine del aeroporto : 1046 ft
- Codice IATA : NUE


EDDN - Nuremberg

ULTIMO METAR :
  • 071450Z 31008KT 210V350 CAVOK 20/06 Q1019 NOSIG

METARs OBSOLETI :
  • 071420Z 27008KT 160V320 CAVOK 21/06 Q1019 NOSIG
  • 071350Z 27009KT 230V320 CAVOK 20/05 Q1020 NOSIG
  • 071320Z 28009KT 240V320 CAVOK 20/06 Q1020 NOSIG
  • 071250Z 29011KT 250V350 CAVOK 21/06 Q1020 NOSIG
  • 071220Z 26008KT 210V330 CAVOK 19/06 Q1020 NOSIG

TAF TAF EDDN
Valido dal 07 a 12 ore il 08 a 12 ore UTC


071100Z 0712/0812 29005KT CAVOK
BECMG 0717/0719 VRB02KT
BECMG 0805/0807 20005KT
BECMG 0810/0812 27012KT



MetMap, La meteo Aeronautica in un colpo d'occhio ! - Copyright ORBIFLY Dicembre 2007 - Disclaimer

ORBIFLY MET'MAP TEAM :

Programmazione e sviluppo : Alexandra Zaïnal
Concezione : Baudouin d'Aumeries
Aiuto per la programmazione : Marc-Olivier Méhu
Supporto tecnico e logistico : Manuel Goepfert
Aiuto per la traduzione : Arnaldo La Scala

Contatto : metmap@orbifly.com




FONTI E CREDITI :

   NOAA